Valley Station, Kentucky
Current Conditions -  °F | °C
As of 1:56 AM on Wednesday 22 Oct 2014 (Local Time) from KSDF Reporting Station
Clear Clear  
Wind Chill: 46°   Ceiling: Unl
Heat Index: 49°   Visibility: 10mi
Dew Point: 41°   Wind: 7mph
Humidity: 74%   Direction: 40°NE
Pressure: 30.18"   Gusts: NA
Location:  38.0866°N, 85.8492°W
Report Text: KSDF 220556Z 04006KT 10SM CLR 09/05 A3018 RMK AO2 SLP220 T00940050 10139 20094 51009
Loading
Personal Weather Stations






























Interactive Weather Map
Tropical Storm Tracking
New forecast layout! Learn more

10-Day Weather Forecast

Advertisements
Track Severe Weather on mobile